createdAt,value
2022-08-11T00:01:17.662Z,22.70
2022-08-11T00:03:49.359Z,22.68
2022-08-11T00:06:26.122Z,22.61
2022-08-11T00:08:56.422Z,22.56
2022-08-11T00:11:35.283Z,22.52
2022-08-11T00:14:05.455Z,22.56
2022-08-11T00:16:35.621Z,22.52
2022-08-11T00:19:04.540Z,22.42
2022-08-11T00:22:02.114Z,22.41
2022-08-11T00:24:50.977Z,22.35
2022-08-11T00:27:34.597Z,22.30
2022-08-11T00:30:03.593Z,22.25
2022-08-11T00:32:33.987Z,22.28
2022-08-11T00:35:51.909Z,22.27
2022-08-11T00:37:57.146Z,22.24
2022-08-11T00:40:38.265Z,22.22
2022-08-11T00:43:22.881Z,22.17
2022-08-11T00:46:13.787Z,22.14
2022-08-11T00:48:58.332Z,22.13
2022-08-11T00:52:04.787Z,22.08
2022-08-11T00:55:24.808Z,22.14
2022-08-11T00:58:26.637Z,22.09
2022-08-11T01:01:11.911Z,22.05
2022-08-11T01:04:32.380Z,22.05
2022-08-11T01:08:05.249Z,22.04
2022-08-11T01:11:30.604Z,21.99
2022-08-11T01:14:40.740Z,21.92
2022-08-11T01:18:10.240Z,21.92
2022-08-11T01:21:26.615Z,21.86
2022-08-11T01:25:01.063Z,21.79
2022-08-11T01:28:41.670Z,21.79
2022-08-11T01:31:58.627Z,21.71
2022-08-11T01:35:22.143Z,21.65
2022-08-11T01:38:39.045Z,21.69
2022-08-11T01:41:58.609Z,21.69
2022-08-11T01:45:09.045Z,21.66
2022-08-11T01:47:54.120Z,21.58
2022-08-11T01:50:47.602Z,21.55
2022-08-11T01:53:29.950Z,21.52
2022-08-11T01:56:34.311Z,21.42
2022-08-11T01:59:15.571Z,21.40
2022-08-11T02:02:16.666Z,21.39
2022-08-11T02:04:58.676Z,21.32
2022-08-11T02:07:37.681Z,21.27
2022-08-11T02:10:40.676Z,21.41
2022-08-11T02:13:19.367Z,21.38
2022-08-11T02:16:14.820Z,21.32
2022-08-11T02:19:07.084Z,21.30
2022-08-11T02:22:04.935Z,21.17
2022-08-11T02:24:46.593Z,21.18
2022-08-11T02:27:23.054Z,21.11
2022-08-11T02:30:07.505Z,21.16
2022-08-11T02:33:00.663Z,21.14
2022-08-11T02:35:32.916Z,21.11
2022-08-11T02:38:19.080Z,20.99
2022-08-11T02:40:58.449Z,21.03
2022-08-11T02:43:48.709Z,21.02
2022-08-11T02:46:28.066Z,21.01
2022-08-11T02:49:24.418Z,21.03
2022-08-11T02:52:06.740Z,21.04
2022-08-11T02:54:44.843Z,20.97
2022-08-11T02:57:23.794Z,20.92
2022-08-11T02:59:58.963Z,20.90
2022-08-11T03:02:56.650Z,20.87
2022-08-11T03:05:55.282Z,20.87
2022-08-11T03:08:49.086Z,20.84
2022-08-11T03:11:50.611Z,20.85
2022-08-11T03:14:52.862Z,20.94
2022-08-11T03:17:33.617Z,21.04
2022-08-11T03:20:17.709Z,21.17
2022-08-11T03:22:57.763Z,21.20
2022-08-11T03:25:34.822Z,21.18
2022-08-11T03:28:17.561Z,21.32
2022-08-11T03:30:57.798Z,21.30
2022-08-11T03:33:49.698Z,21.34
2022-08-11T03:37:16.005Z,21.29
2022-08-11T03:39:57.239Z,21.30
2022-08-11T03:42:34.118Z,21.24
2022-08-11T03:45:23.947Z,21.24
2022-08-11T03:48:16.051Z,21.19
2022-08-11T03:50:57.065Z,21.11
2022-08-11T03:53:50.735Z,21.05
2022-08-11T03:57:03.664Z,21.04
2022-08-11T04:00:09.081Z,20.98
2022-08-11T04:03:37.680Z,20.99
2022-08-11T04:06:51.420Z,21.14
2022-08-11T04:10:10.950Z,21.33
2022-08-11T04:13:29.911Z,21.15
2022-08-11T04:16:24.744Z,21.13
2022-08-11T04:19:56.719Z,21.16
2022-08-11T04:22:54.319Z,21.22
2022-08-11T04:26:11.663Z,21.10
2022-08-11T04:29:09.490Z,21.05
2022-08-11T04:31:52.084Z,21.04
2022-08-11T04:35:00.019Z,21.13
2022-08-11T04:38:10.419Z,21.04
2022-08-11T04:40:58.463Z,20.99
2022-08-11T04:44:17.065Z,20.93
2022-08-11T04:47:12.248Z,20.84
2022-08-11T04:50:17.525Z,20.81
2022-08-11T04:53:32.402Z,20.83
2022-08-11T04:56:28.016Z,20.81
2022-08-11T04:59:43.996Z,20.77
2022-08-11T05:03:03.160Z,20.99
2022-08-11T05:05:56.782Z,21.51
2022-08-11T05:09:21.898Z,21.78
2022-08-11T05:12:20.170Z,22.33
2022-08-11T05:15:10.283Z,22.47
2022-08-11T05:18:12.559Z,22.59
2022-08-11T05:21:07.132Z,22.55
2022-08-11T05:23:59.492Z,22.69
2022-08-11T05:26:56.361Z,23.03
2022-08-11T05:30:00.901Z,23.29
2022-08-11T05:32:59.386Z,23.34
2022-08-11T05:36:00.100Z,23.67
2022-08-11T05:38:45.780Z,23.86
2022-08-11T05:41:32.790Z,23.96
2022-08-11T05:44:22.744Z,23.65
2022-08-11T05:47:09.235Z,23.88
2022-08-11T05:49:56.750Z,23.88
2022-08-11T05:52:55.352Z,24.07
2022-08-11T05:56:01.774Z,24.22
2022-08-11T05:58:41.762Z,24.49
2022-08-11T06:01:14.842Z,24.66
2022-08-11T06:04:04.080Z,25.01
2022-08-11T06:06:33.138Z,25.29
2022-08-11T06:09:03.327Z,24.95
2022-08-11T06:11:43.249Z,24.67
2022-08-11T06:14:14.047Z,24.82
2022-08-11T06:16:45.165Z,24.93
2022-08-11T06:19:14.301Z,25.04
2022-08-11T06:21:47.968Z,25.64
2022-08-11T06:24:17.605Z,25.84
2022-08-11T06:27:11.707Z,25.92
2022-08-11T06:29:54.740Z,25.66
2022-08-11T06:32:29.747Z,25.61
2022-08-11T06:35:11.520Z,25.90
2022-08-11T06:37:49.868Z,25.93
2022-08-11T06:40:40.021Z,25.82
2022-08-11T06:43:19.910Z,25.75
2022-08-11T06:46:03.298Z,26.09
2022-08-11T06:48:34.928Z,26.32
2022-08-11T06:51:12.789Z,26.81
2022-08-11T06:53:57.608Z,26.41
2022-08-11T06:57:12.554Z,26.56
2022-08-11T07:00:02.276Z,26.82
2022-08-11T07:02:35.407Z,27.00
2022-08-11T07:05:14.400Z,26.91
2022-08-11T07:08:44.651Z,26.57
2022-08-11T07:12:03.314Z,26.86
2022-08-11T07:14:50.630Z,27.20
2022-08-11T07:17:23.584Z,27.63
2022-08-11T07:20:13.341Z,27.92
2022-08-11T07:23:00.171Z,28.29
2022-08-11T07:25:48.146Z,27.72
2022-08-11T07:28:41.584Z,27.75
2022-08-11T07:31:14.213Z,27.76
2022-08-11T07:34:07.921Z,28.12
2022-08-11T07:36:41.115Z,28.26
2022-08-11T07:39:22.010Z,28.65
2022-08-11T07:41:52.830Z,29.09
2022-08-11T07:44:22.500Z,29.59
2022-08-11T07:47:09.414Z,29.17
2022-08-11T07:49:58.051Z,29.45
2022-08-11T07:52:33.837Z,29.61
2022-08-11T07:55:08.625Z,29.87
2022-08-11T07:58:14.131Z,30.08
2022-08-11T08:01:10.648Z,29.77
2022-08-11T08:04:08.182Z,29.82
2022-08-11T08:06:55.492Z,30.23
2022-08-11T08:09:42.941Z,30.23
2022-08-11T08:12:31.636Z,30.70
2022-08-11T08:15:17.886Z,30.50
2022-08-11T08:18:20.449Z,30.91
2022-08-11T08:20:47.047Z,31.71
2022-08-11T08:23:15.983Z,31.40
2022-08-11T08:25:46.479Z,30.96
2022-08-11T08:28:18.970Z,31.57
2022-08-11T08:30:50.882Z,31.08
2022-08-11T08:33:23.133Z,30.94
2022-08-11T08:36:11.788Z,32.27
2022-08-11T08:38:42.582Z,32.89
2022-08-11T08:41:16.303Z,32.18
2022-08-11T08:43:53.471Z,32.04
2022-08-11T08:46:27.420Z,31.73
2022-08-11T08:48:56.452Z,30.80
2022-08-11T08:52:02.440Z,31.77
2022-08-11T08:54:35.550Z,32.24
2022-08-11T08:57:06.115Z,31.55
2022-08-11T08:59:48.523Z,31.68
2022-08-11T09:02:33.646Z,32.10
2022-08-11T09:05:04.905Z,31.63
2022-08-11T09:07:38.912Z,31.58
2022-08-11T09:10:11.447Z,32.00
2022-08-11T09:12:42.704Z,32.13
2022-08-11T09:15:15.195Z,32.70
2022-08-11T09:17:50.314Z,32.81
2022-08-11T09:20:21.994Z,32.88
2022-08-11T09:26:18.953Z,32.13
2022-08-11T09:28:50.127Z,30.80
2022-08-11T09:31:22.762Z,31.11
2022-08-11T09:33:55.601Z,32.14
2022-08-11T09:36:42.329Z,32.29
2022-08-11T09:39:31.118Z,32.30
2022-08-11T09:42:03.303Z,31.90
2022-08-11T09:44:49.367Z,30.97
2022-08-11T09:47:24.417Z,29.97
2022-08-11T09:49:59.908Z,30.90
2022-08-11T09:52:30.947Z,29.36
2022-08-11T09:55:00.145Z,28.62
2022-08-11T09:57:55.178Z,29.37
2022-08-11T10:00:30.927Z,30.60
2022-08-11T10:03:02.715Z,30.70
2022-08-11T10:05:49.579Z,31.74
2022-08-11T10:08:20.577Z,31.52
2022-08-11T10:10:51.338Z,31.53
2022-08-11T10:14:08.070Z,32.62
2022-08-11T10:16:15.860Z,33.04
2022-08-11T10:18:53.351Z,33.47
2022-08-11T10:21:31.807Z,31.81
2022-08-11T10:24:19.905Z,31.64
2022-08-11T10:27:00.286Z,30.82
2022-08-11T10:29:51.929Z,31.14
2022-08-11T10:32:57.533Z,31.11
2022-08-11T10:35:31.786Z,30.60
2022-08-11T10:38:08.983Z,31.01
2022-08-11T10:40:41.763Z,31.09
2022-08-11T10:43:14.339Z,31.45
2022-08-11T10:46:05.175Z,31.59
2022-08-11T10:48:38.932Z,30.74
2022-08-11T10:51:15.601Z,30.77
2022-08-11T10:54:21.851Z,31.48
2022-08-11T10:57:07.861Z,31.48
2022-08-11T10:59:36.735Z,31.88
2022-08-11T11:02:06.327Z,31.42
2022-08-11T11:04:59.160Z,31.39
2022-08-11T11:07:44.472Z,31.84
2022-08-11T11:10:13.227Z,31.12
2022-08-11T11:13:18.160Z,31.31
2022-08-11T11:16:06.738Z,31.56
2022-08-11T11:18:38.046Z,31.09
2022-08-11T11:21:09.163Z,30.92
2022-08-11T11:23:47.540Z,31.35
2022-08-11T11:26:42.174Z,31.54
2022-08-11T11:29:34.556Z,31.77
2022-08-11T11:32:25.943Z,30.90
2022-08-11T11:35:12.705Z,31.11
2022-08-11T11:38:03.661Z,31.03
2022-08-11T11:40:35.153Z,30.93
2022-08-11T11:43:05.246Z,31.32
2022-08-11T11:45:33.916Z,31.03
2022-08-11T11:48:03.341Z,31.20
2022-08-11T11:50:35.820Z,31.16
2022-08-11T11:53:08.691Z,31.05
2022-08-11T11:55:39.217Z,30.76
2022-08-11T11:58:25.812Z,30.52
2022-08-11T12:01:12.861Z,30.36
2022-08-11T12:03:42.479Z,29.97
2022-08-11T12:06:14.778Z,30.04
2022-08-11T12:08:45.110Z,30.56
2022-08-11T12:11:30.559Z,30.52
2022-08-11T12:14:03.079Z,30.41
2022-08-11T12:16:36.599Z,30.78
2022-08-11T12:19:10.423Z,30.42
2022-08-11T12:22:00.971Z,30.47
2022-08-11T12:24:48.401Z,30.48
2022-08-11T12:27:24.873Z,29.84
2022-08-11T12:29:57.947Z,30.23
2022-08-11T12:32:30.390Z,30.31
2022-08-11T12:34:59.342Z,30.26
2022-08-11T12:37:33.137Z,30.14
2022-08-11T12:40:49.396Z,30.18
2022-08-11T12:43:37.269Z,30.52
2022-08-11T12:46:11.253Z,30.58
2022-08-11T12:49:04.613Z,30.42
2022-08-11T12:52:12.483Z,30.29
2022-08-11T12:54:51.783Z,30.39
2022-08-11T12:57:45.223Z,30.29
2022-08-11T13:00:34.838Z,30.12
2022-08-11T13:03:22.385Z,29.65
2022-08-11T13:05:55.662Z,29.76
2022-08-11T13:08:25.923Z,29.98
2022-08-11T13:11:15.191Z,29.97
2022-08-11T13:13:55.085Z,30.06
2022-08-11T13:16:31.085Z,29.86
2022-08-11T13:19:01.868Z,29.90
2022-08-11T13:21:33.753Z,29.96
2022-08-11T13:24:03.742Z,30.18
2022-08-11T13:26:48.388Z,30.05
2022-08-11T13:29:20.783Z,30.06
2022-08-11T13:31:52.001Z,29.84
2022-08-11T13:34:21.977Z,29.48
2022-08-11T13:36:53.527Z,29.56
2022-08-11T13:39:24.412Z,29.46
2022-08-11T13:41:55.252Z,29.72
2022-08-11T13:44:27.152Z,29.68
2022-08-11T13:47:01.392Z,29.80
2022-08-11T13:49:31.329Z,29.89
2022-08-11T13:52:00.699Z,29.99
2022-08-11T13:54:32.599Z,29.96
2022-08-11T13:57:08.144Z,29.87
2022-08-11T13:59:51.822Z,29.73
2022-08-11T14:02:30.679Z,29.86
2022-08-11T14:05:05.194Z,29.82
2022-08-11T14:07:40.492Z,29.86
2022-08-11T14:10:13.500Z,30.01
2022-08-11T14:13:02.398Z,29.93
2022-08-11T14:15:34.780Z,30.01
2022-08-11T14:18:08.428Z,30.07
2022-08-11T14:21:00.160Z,30.09
2022-08-11T14:23:33.087Z,30.02
2022-08-11T14:26:19.728Z,29.99
2022-08-11T14:28:50.007Z,29.84
2022-08-11T14:31:19.254Z,29.65
2022-08-11T14:34:00.140Z,29.03
2022-08-11T14:36:36.602Z,29.81
2022-08-11T14:39:13.215Z,29.47
2022-08-11T14:42:08.499Z,29.06
2022-08-11T14:45:01.953Z,29.96
2022-08-11T14:47:34.080Z,29.88
2022-08-11T14:50:12.508Z,30.07
2022-08-11T14:52:55.101Z,30.23
2022-08-11T14:55:46.923Z,30.30
2022-08-11T14:58:19.626Z,30.23
2022-08-11T15:00:50.808Z,30.19
2022-08-11T15:03:19.026Z,30.26
2022-08-11T15:05:57.481Z,30.32
2022-08-11T15:08:50.134Z,30.36
2022-08-11T15:11:39.410Z,30.26
2022-08-11T15:14:10.549Z,30.32
2022-08-11T15:17:00.261Z,30.28
2022-08-11T15:19:40.158Z,30.15
2022-08-11T15:22:29.166Z,30.17
2022-08-11T15:25:00.083Z,30.19
2022-08-11T15:27:51.916Z,30.45
2022-08-11T15:30:38.972Z,30.18
2022-08-11T15:33:27.946Z,30.54
2022-08-11T15:36:15.820Z,30.40
2022-08-11T15:38:55.165Z,30.55
2022-08-11T15:41:54.321Z,30.49
2022-08-11T15:45:03.581Z,30.45
2022-08-11T15:47:41.556Z,30.55
2022-08-11T15:50:16.340Z,30.40
2022-08-11T15:52:54.187Z,30.54
2022-08-11T15:55:25.510Z,30.51
2022-08-11T15:58:13.981Z,30.45
2022-08-11T16:01:04.329Z,30.42
2022-08-11T16:04:08.994Z,30.43
2022-08-11T16:06:49.627Z,30.10
2022-08-11T16:09:31.005Z,30.34
2022-08-11T16:12:18.192Z,29.92
2022-08-11T16:15:09.155Z,30.32
2022-08-11T16:17:44.387Z,30.13
2022-08-11T16:20:15.855Z,30.20
2022-08-11T16:23:00.393Z,30.36
2022-08-11T16:27:03.665Z,30.13
2022-08-11T16:28:26.765Z,30.02
2022-08-11T16:30:56.217Z,30.01
2022-08-11T16:33:49.881Z,30.04
2022-08-11T16:36:33.602Z,29.95
2022-08-11T16:39:05.114Z,30.06
2022-08-11T16:41:54.474Z,30.05
2022-08-11T16:44:43.203Z,30.18
2022-08-11T16:47:16.256Z,29.95
2022-08-11T16:49:52.755Z,30.17
2022-08-11T16:52:23.096Z,29.94
2022-08-11T16:54:52.897Z,29.63
2022-08-11T16:57:42.761Z,30.05
2022-08-11T17:00:17.555Z,30.10
2022-08-11T17:03:08.075Z,30.14
2022-08-11T17:06:00.347Z,30.15
2022-08-11T17:08:56.739Z,30.17
2022-08-11T17:11:46.316Z,30.19
2022-08-11T17:14:36.961Z,30.20
2022-08-11T17:17:13.773Z,30.15
2022-08-11T17:20:39.982Z,30.17
2022-08-11T17:22:57.894Z,30.13
2022-08-11T17:25:29.404Z,30.11
2022-08-11T17:28:01.305Z,30.19
2022-08-11T17:30:45.849Z,30.17
2022-08-11T17:33:45.305Z,29.93
2022-08-11T17:36:15.563Z,29.88
2022-08-11T17:38:46.131Z,29.94
2022-08-11T17:41:33.507Z,29.93
2022-08-11T17:44:20.429Z,29.79
2022-08-11T17:47:07.232Z,29.68
2022-08-11T17:49:40.571Z,29.75
2022-08-11T17:52:30.673Z,29.76
2022-08-11T17:55:51.698Z,29.57
2022-08-11T17:58:26.495Z,29.63
2022-08-11T18:00:56.075Z,29.69
2022-08-11T18:03:33.143Z,29.60
2022-08-11T18:06:06.182Z,29.63
2022-08-11T18:08:53.357Z,29.61
2022-08-11T18:12:11.037Z,29.48
2022-08-11T18:14:51.664Z,29.06
2022-08-11T18:17:37.960Z,28.98
2022-08-11T18:20:26.126Z,29.06
2022-08-11T18:23:15.727Z,28.85
2022-08-11T18:26:07.024Z,28.86
2022-08-11T18:29:03.030Z,28.70
2022-08-11T18:31:54.470Z,28.57
2022-08-11T18:34:49.285Z,28.62
2022-08-11T18:37:40.290Z,28.57
2022-08-11T18:40:34.911Z,28.54
2022-08-11T18:43:27.339Z,28.35
2022-08-11T18:46:21.678Z,28.34
2022-08-11T18:49:15.847Z,28.34
2022-08-11T18:52:07.460Z,28.27
2022-08-11T18:54:57.388Z,28.25
2022-08-11T18:57:49.555Z,28.29
2022-08-11T19:00:42.037Z,28.25
2022-08-11T19:03:30.024Z,28.19
2022-08-11T19:06:38.082Z,28.22
2022-08-11T19:09:31.604Z,28.20
2022-08-11T19:12:19.423Z,28.17
2022-08-11T19:15:09.455Z,28.10
2022-08-11T19:18:00.640Z,28.04
2022-08-11T19:20:50.628Z,27.96
2022-08-11T19:23:48.199Z,27.94
2022-08-11T19:26:35.190Z,27.84
2022-08-11T19:30:06.981Z,27.80
2022-08-11T19:32:32.428Z,27.74
2022-08-11T19:35:21.567Z,27.69
2022-08-11T19:38:09.465Z,27.61
2022-08-11T19:40:57.706Z,27.58
2022-08-11T19:43:45.368Z,27.51
2022-08-11T19:46:32.500Z,27.47
2022-08-11T19:49:21.740Z,27.37
2022-08-11T19:52:09.205Z,27.31
2022-08-11T19:54:57.129Z,27.27
2022-08-11T19:57:44.240Z,27.24
2022-08-11T20:00:34.476Z,27.20
2022-08-11T20:03:25.392Z,27.11
2022-08-11T20:06:16.158Z,27.03
2022-08-11T20:09:04.608Z,26.99
2022-08-11T20:11:56.160Z,26.95
2022-08-11T20:14:46.562Z,26.87
2022-08-11T20:17:33.194Z,26.87
2022-08-11T20:20:24.796Z,26.82
2022-08-11T20:23:14.329Z,26.75
2022-08-11T20:26:14.054Z,26.68
2022-08-11T20:29:09.266Z,26.61
2022-08-11T20:31:56.246Z,26.55
2022-08-11T20:34:43.429Z,26.51
2022-08-11T20:37:31.044Z,26.45
2022-08-11T20:40:23.640Z,26.42
2022-08-11T20:44:04.822Z,26.38
2022-08-11T20:46:17.552Z,26.35
2022-08-11T20:49:05.161Z,26.28
2022-08-11T20:51:51.605Z,26.23
2022-08-11T20:54:43.673Z,26.27
2022-08-11T20:57:35.650Z,26.16
2022-08-11T21:00:40.014Z,26.10
2022-08-11T21:03:35.315Z,26.06
2022-08-11T21:06:31.258Z,26.07
2022-08-11T21:09:25.070Z,26.08
2022-08-11T21:15:39.165Z,26.06
2022-08-11T21:18:29.447Z,25.95
2022-08-11T21:21:18.545Z,25.88
2022-08-11T21:24:07.139Z,25.91
2022-08-11T21:27:01.562Z,25.79
2022-08-11T21:29:54.373Z,25.84
2022-08-11T21:32:42.745Z,25.67
2022-08-11T21:35:29.745Z,25.62
2022-08-11T21:38:17.127Z,25.56
2022-08-11T21:41:05.999Z,25.54
2022-08-11T21:43:52.891Z,25.46
2022-08-11T21:46:41.580Z,25.46
2022-08-11T21:49:30.146Z,25.39
2022-08-11T21:52:16.228Z,25.33
2022-08-11T21:55:02.624Z,25.30
2022-08-11T21:57:49.903Z,25.19
2022-08-11T22:00:36.698Z,25.17
2022-08-11T22:03:24.250Z,25.15
2022-08-11T22:06:12.878Z,25.14
2022-08-11T22:09:00.797Z,25.07
2022-08-11T22:11:47.716Z,25.03
2022-08-11T22:14:33.492Z,25.02
2022-08-11T22:17:19.582Z,25.02
2022-08-11T22:20:07.286Z,25.00
2022-08-11T22:22:54.687Z,24.95
2022-08-11T22:25:51.565Z,24.94
2022-08-11T22:28:40.195Z,24.88
2022-08-11T22:31:29.531Z,24.85
2022-08-11T22:34:15.361Z,24.82
2022-08-11T22:37:05.095Z,24.77
2022-08-11T22:40:01.837Z,24.67
2022-08-11T22:42:49.630Z,24.66
2022-08-11T22:45:35.948Z,24.58
2022-08-11T22:48:24.882Z,24.52
2022-08-11T22:51:12.672Z,24.47
2022-08-11T22:54:00.485Z,24.47
2022-08-11T22:56:49.216Z,24.45
2022-08-11T22:59:37.573Z,24.44
2022-08-11T23:02:26.086Z,24.40
2022-08-11T23:05:12.662Z,24.46
2022-08-11T23:07:59.133Z,24.49
2022-08-11T23:10:47.363Z,24.45
2022-08-11T23:13:34.483Z,24.40
2022-08-11T23:16:20.805Z,24.45
2022-08-11T23:19:08.074Z,24.40
2022-08-11T23:21:56.523Z,24.35
2022-08-11T23:24:44.632Z,24.32
2022-08-11T23:27:33.671Z,24.28
2022-08-11T23:30:20.604Z,24.23
2022-08-11T23:33:11.300Z,24.21
2022-08-11T23:36:05.336Z,24.25
2022-08-11T23:38:51.729Z,24.22
2022-08-11T23:41:38.269Z,24.13
2022-08-11T23:44:26.869Z,24.05
2022-08-11T23:47:15.839Z,23.98
2022-08-11T23:50:03.387Z,23.90
2022-08-11T23:52:52.071Z,23.87
2022-08-11T23:55:38.644Z,23.81
2022-08-11T23:58:25.451Z,23.75
